sensor_id;sensor_type;location;lat;lon;timestamp;P1;durP1;ratioP1;P2;durP2;ratioP2
20830;SDS011;10576;53.556;9.868;2023-05-10T00:01:04;4.60;;;3.63;;
20830;SDS011;10576;53.556;9.868;2023-05-10T00:03:30;5.13;;;3.97;;
20830;SDS011;10576;53.556;9.868;2023-05-10T00:05:56;6.68;;;3.95;;
20830;SDS011;10576;53.556;9.868;2023-05-10T00:08:22;7.40;;;3.90;;
20830;SDS011;10576;53.556;9.868;2023-05-10T00:10:47;8.13;;;3.83;;
20830;SDS011;10576;53.556;9.868;2023-05-10T00:13:13;6.65;;;4.20;;
20830;SDS011;10576;53.556;9.868;2023-05-10T00:15:39;6.97;;;3.85;;
20830;SDS011;10576;53.556;9.868;2023-05-10T00:18:05;5.50;;;3.42;;
20830;SDS011;10576;53.556;9.868;2023-05-10T00:20:30;6.40;;;3.63;;
20830;SDS011;10576;53.556;9.868;2023-05-10T00:22:56;7.05;;;4.07;;
20830;SDS011;10576;53.556;9.868;2023-05-10T00:25:22;5.07;;;4.03;;
20830;SDS011;10576;53.556;9.868;2023-05-10T00:27:47;5.32;;;3.90;;
20830;SDS011;10576;53.556;9.868;2023-05-10T00:30:13;4.57;;;4.07;;
20830;SDS011;10576;53.556;9.868;2023-05-10T00:32:39;4.63;;;4.00;;
20830;SDS011;10576;53.556;9.868;2023-05-10T00:35:05;5.78;;;3.78;;
20830;SDS011;10576;53.556;9.868;2023-05-10T00:37:31;6.13;;;4.03;;
20830;SDS011;10576;53.556;9.868;2023-05-10T00:39:56;5.93;;;4.30;;
20830;SDS011;10576;53.556;9.868;2023-05-10T00:42:22;6.63;;;4.20;;
20830;SDS011;10576;53.556;9.868;2023-05-10T00:44:48;5.60;;;4.03;;
20830;SDS011;10576;53.556;9.868;2023-05-10T00:47:13;8.13;;;4.10;;
20830;SDS011;10576;53.556;9.868;2023-05-10T00:49:40;6.22;;;4.00;;
20830;SDS011;10576;53.556;9.868;2023-05-10T00:52:06;5.28;;;3.97;;
20830;SDS011;10576;53.556;9.868;2023-05-10T00:54:32;6.30;;;4.10;;
20830;SDS011;10576;53.556;9.868;2023-05-10T00:56:58;6.87;;;4.40;;
20830;SDS011;10576;53.556;9.868;2023-05-10T00:59:24;6.17;;;3.97;;
20830;SDS011;10576;53.556;9.868;2023-05-10T01:01:50;4.72;;;4.20;;
20830;SDS011;10576;53.556;9.868;2023-05-10T01:04:16;6.28;;;4.13;;
20830;SDS011;10576;53.556;9.868;2023-05-10T01:06:42;5.97;;;4.27;;
20830;SDS011;10576;53.556;9.868;2023-05-10T01:09:08;7.30;;;3.97;;
20830;SDS011;10576;53.556;9.868;2023-05-10T01:11:35;5.33;;;4.30;;
20830;SDS011;10576;53.556;9.868;2023-05-10T01:14:03;5.03;;;4.25;;
20830;SDS011;10576;53.556;9.868;2023-05-10T01:16:32;6.03;;;4.38;;
20830;SDS011;10576;53.556;9.868;2023-05-10T01:19:01;6.25;;;4.32;;
20830;SDS011;10576;53.556;9.868;2023-05-10T01:32:30;5.82;;;4.50;;
20830;SDS011;10576;53.556;9.868;2023-05-10T01:35:13;6.18;;;4.38;;
20830;SDS011;10576;53.556;9.868;2023-05-10T01:43:03;6.00;;;4.30;;
20830;SDS011;10576;53.556;9.868;2023-05-10T01:46:07;5.25;;;4.50;;
20830;SDS011;10576;53.556;9.868;2023-05-10T01:48:57;5.00;;;4.60;;
20830;SDS011;10576;53.556;9.868;2023-05-10T01:51:24;8.65;;;4.70;;
20830;SDS011;10576;53.556;9.868;2023-05-10T01:53:54;7.57;;;4.60;;
20830;SDS011;10576;53.556;9.868;2023-05-10T01:56:30;5.55;;;4.60;;
20830;SDS011;10576;53.556;9.868;2023-05-10T01:58:58;5.32;;;4.50;;
20830;SDS011;10576;53.556;9.868;2023-05-10T02:01:30;5.90;;;4.40;;
20830;SDS011;10576;53.556;9.868;2023-05-10T02:03:56;6.45;;;4.55;;
20830;SDS011;10576;53.556;9.868;2023-05-10T02:06:24;5.82;;;4.32;;
20830;SDS011;10576;53.556;9.868;2023-05-10T02:08:51;6.40;;;4.63;;
20830;SDS011;10576;53.556;9.868;2023-05-10T02:11:18;6.00;;;4.47;;
20830;SDS011;10576;53.556;9.868;2023-05-10T02:13:45;4.90;;;4.37;;
20830;SDS011;10576;53.556;9.868;2023-05-10T02:16:14;5.88;;;4.20;;
20830;SDS011;10576;53.556;9.868;2023-05-10T02:18:41;5.65;;;4.40;;
20830;SDS011;10576;53.556;9.868;2023-05-10T02:21:07;5.10;;;4.65;;
20830;SDS011;10576;53.556;9.868;2023-05-10T02:23:34;5.05;;;4.55;;
20830;SDS011;10576;53.556;9.868;2023-05-10T02:26:00;8.00;;;4.53;;
20830;SDS011;10576;53.556;9.868;2023-05-10T02:28:27;6.75;;;4.70;;
20830;SDS011;10576;53.556;9.868;2023-05-10T02:30:54;5.22;;;4.55;;
20830;SDS011;10576;53.556;9.868;2023-05-10T02:33:21;5.45;;;4.40;;
20830;SDS011;10576;53.556;9.868;2023-05-10T02:35:47;5.80;;;4.60;;
20830;SDS011;10576;53.556;9.868;2023-05-10T02:38:15;7.05;;;4.35;;
20830;SDS011;10576;53.556;9.868;2023-05-10T02:40:41;5.38;;;4.65;;
20830;SDS011;10576;53.556;9.868;2023-05-10T02:43:09;6.72;;;4.60;;
20830;SDS011;10576;53.556;9.868;2023-05-10T02:45:38;5.20;;;4.70;;
20830;SDS011;10576;53.556;9.868;2023-05-10T02:48:05;6.15;;;4.80;;
20830;SDS011;10576;53.556;9.868;2023-05-10T02:50:32;5.75;;;4.63;;
20830;SDS011;10576;53.556;9.868;2023-05-10T02:53:03;5.82;;;4.43;;
20830;SDS011;10576;53.556;9.868;2023-05-10T02:55:37;5.25;;;4.75;;
20830;SDS011;10576;53.556;9.868;2023-05-10T02:58:05;4.80;;;4.30;;
20830;SDS011;10576;53.556;9.868;2023-05-10T03:00:31;4.97;;;4.57;;
20830;SDS011;10576;53.556;9.868;2023-05-10T03:02:57;6.28;;;4.65;;
20830;SDS011;10576;53.556;9.868;2023-05-10T03:05:22;8.30;;;4.63;;
20830;SDS011;10576;53.556;9.868;2023-05-10T03:07:48;6.47;;;4.77;;
20830;SDS011;10576;53.556;9.868;2023-05-10T03:10:14;5.90;;;4.65;;
20830;SDS011;10576;53.556;9.868;2023-05-10T03:15:35;6.35;;;4.82;;
20830;SDS011;10576;53.556;9.868;2023-05-10T03:18:20;5.57;;;4.67;;
20830;SDS011;10576;53.556;9.868;2023-05-10T03:20:48;7.75;;;4.60;;
20830;SDS011;10576;53.556;9.868;2023-05-10T03:25:43;5.70;;;4.63;;
20830;SDS011;10576;53.556;9.868;2023-05-10T03:28:12;5.00;;;4.53;;
20830;SDS011;10576;53.556;9.868;2023-05-10T03:30:39;7.75;;;4.90;;
20830;SDS011;10576;53.556;9.868;2023-05-10T03:33:06;6.70;;;4.82;;
20830;SDS011;10576;53.556;9.868;2023-05-10T03:35:32;6.63;;;4.63;;
20830;SDS011;10576;53.556;9.868;2023-05-10T03:37:58;7.20;;;4.77;;
20830;SDS011;10576;53.556;9.868;2023-05-10T03:40:24;7.50;;;5.20;;
20830;SDS011;10576;53.556;9.868;2023-05-10T03:42:51;7.90;;;4.82;;
20830;SDS011;10576;53.556;9.868;2023-05-10T03:45:16;5.70;;;4.97;;
20830;SDS011;10576;53.556;9.868;2023-05-10T03:47:42;7.23;;;4.77;;
20830;SDS011;10576;53.556;9.868;2023-05-10T03:50:07;6.87;;;4.97;;
20830;SDS011;10576;53.556;9.868;2023-05-10T03:52:33;5.30;;;4.80;;
20830;SDS011;10576;53.556;9.868;2023-05-10T03:54:59;6.23;;;4.90;;
20830;SDS011;10576;53.556;9.868;2023-05-10T03:57:24;6.93;;;4.97;;
20830;SDS011;10576;53.556;9.868;2023-05-10T03:59:50;6.37;;;4.70;;
20830;SDS011;10576;53.556;9.868;2023-05-10T04:02:16;6.07;;;4.67;;
20830;SDS011;10576;53.556;9.868;2023-05-10T04:04:41;5.10;;;4.60;;
20830;SDS011;10576;53.556;9.868;2023-05-10T04:07:07;6.20;;;4.80;;
20830;SDS011;10576;53.556;9.868;2023-05-10T04:09:34;5.68;;;4.88;;
20830;SDS011;10576;53.556;9.868;2023-05-10T04:12:00;6.25;;;4.82;;
20830;SDS011;10576;53.556;9.868;2023-05-10T04:14:27;6.25;;;4.90;;
20830;SDS011;10576;53.556;9.868;2023-05-10T04:16:53;8.07;;;5.10;;
20830;SDS011;10576;53.556;9.868;2023-05-10T04:19:18;5.80;;;4.67;;
20830;SDS011;10576;53.556;9.868;2023-05-10T04:21:44;5.43;;;4.80;;
20830;SDS011;10576;53.556;9.868;2023-05-10T04:24:10;5.80;;;5.25;;
20830;SDS011;10576;53.556;9.868;2023-05-10T04:26:35;7.40;;;4.83;;
20830;SDS011;10576;53.556;9.868;2023-05-10T04:29:01;6.87;;;4.73;;
20830;SDS011;10576;53.556;9.868;2023-05-10T04:31:27;5.60;;;4.80;;
20830;SDS011;10576;53.556;9.868;2023-05-10T04:33:53;6.68;;;5.00;;
20830;SDS011;10576;53.556;9.868;2023-05-10T04:36:18;7.50;;;4.90;;
20830;SDS011;10576;53.556;9.868;2023-05-10T04:38:44;6.47;;;4.90;;
20830;SDS011;10576;53.556;9.868;2023-05-10T04:41:11;5.47;;;4.70;;
20830;SDS011;10576;53.556;9.868;2023-05-10T04:43:36;7.32;;;5.28;;
20830;SDS011;10576;53.556;9.868;2023-05-10T04:46:03;6.03;;;4.82;;
20830;SDS011;10576;53.556;9.868;2023-05-10T04:48:29;7.05;;;4.95;;
20830;SDS011;10576;53.556;9.868;2023-05-10T04:50:55;6.70;;;4.82;;
20830;SDS011;10576;53.556;9.868;2023-05-10T04:53:21;5.77;;;4.83;;
20830;SDS011;10576;53.556;9.868;2023-05-10T04:55:47;8.73;;;5.03;;
20830;SDS011;10576;53.556;9.868;2023-05-10T04:58:13;6.53;;;5.30;;
20830;SDS011;10576;53.556;9.868;2023-05-10T05:00:38;6.68;;;4.88;;
20830;SDS011;10576;53.556;9.868;2023-05-10T05:03:04;5.70;;;5.10;;
20830;SDS011;10576;53.556;9.868;2023-05-10T05:05:30;5.60;;;4.90;;
20830;SDS011;10576;53.556;9.868;2023-05-10T05:07:56;6.80;;;5.23;;
20830;SDS011;10576;53.556;9.868;2023-05-10T05:10:21;5.70;;;5.00;;
20830;SDS011;10576;53.556;9.868;2023-05-10T05:12:47;5.65;;;4.97;;
20830;SDS011;10576;53.556;9.868;2023-05-10T05:15:13;6.20;;;4.70;;
20830;SDS011;10576;53.556;9.868;2023-05-10T05:17:40;6.30;;;5.22;;
20830;SDS011;10576;53.556;9.868;2023-05-10T05:20:05;6.80;;;4.90;;
20830;SDS011;10576;53.556;9.868;2023-05-10T05:22:32;6.57;;;5.18;;
20830;SDS011;10576;53.556;9.868;2023-05-10T05:24:57;6.13;;;5.17;;
20830;SDS011;10576;53.556;9.868;2023-05-10T05:27:23;5.40;;;4.90;;
20830;SDS011;10576;53.556;9.868;2023-05-10T05:29:54;5.45;;;4.85;;
20830;SDS011;10576;53.556;9.868;2023-05-10T05:32:20;9.30;;;5.13;;
20830;SDS011;10576;53.556;9.868;2023-05-10T05:34:47;8.43;;;5.10;;
20830;SDS011;10576;53.556;9.868;2023-05-10T05:37:13;6.03;;;5.28;;
20830;SDS011;10576;53.556;9.868;2023-05-10T05:39:39;6.63;;;5.07;;
20830;SDS011;10576;53.556;9.868;2023-05-10T05:42:05;8.43;;;5.10;;
20830;SDS011;10576;53.556;9.868;2023-05-10T05:44:31;6.10;;;4.75;;
20830;SDS011;10576;53.556;9.868;2023-05-10T05:46:57;7.72;;;5.07;;
20830;SDS011;10576;53.556;9.868;2023-05-10T05:49:22;5.85;;;5.18;;
20830;SDS011;10576;53.556;9.868;2023-05-10T05:51:48;5.28;;;4.68;;
20830;SDS011;10576;53.556;9.868;2023-05-10T05:54:15;5.75;;;4.82;;
20830;SDS011;10576;53.556;9.868;2023-05-10T05:56:41;6.17;;;4.70;;
20830;SDS011;10576;53.556;9.868;2023-05-10T05:59:07;5.60;;;5.00;;
20830;SDS011;10576;53.556;9.868;2023-05-10T06:01:33;9.05;;;5.15;;
20830;SDS011;10576;53.556;9.868;2023-05-10T06:03:58;6.05;;;4.97;;
20830;SDS011;10576;53.556;9.868;2023-05-10T06:06:24;7.55;;;4.95;;
20830;SDS011;10576;53.556;9.868;2023-05-10T06:08:50;5.65;;;4.72;;
20830;SDS011;10576;53.556;9.868;2023-05-10T06:11:16;9.15;;;5.18;;
20830;SDS011;10576;53.556;9.868;2023-05-10T06:13:42;6.03;;;5.20;;
20830;SDS011;10576;53.556;9.868;2023-05-10T06:16:08;7.10;;;5.03;;
20830;SDS011;10576;53.556;9.868;2023-05-10T06:18:33;5.30;;;4.80;;
20830;SDS011;10576;53.556;9.868;2023-05-10T06:20:59;8.95;;;4.82;;
20830;SDS011;10576;53.556;9.868;2023-05-10T06:23:25;6.50;;;5.30;;
20830;SDS011;10576;53.556;9.868;2023-05-10T06:25:51;9.57;;;5.60;;
20830;SDS011;10576;53.556;9.868;2023-05-10T06:28:17;6.47;;;5.20;;
20830;SDS011;10576;53.556;9.868;2023-05-10T06:30:43;7.57;;;5.50;;
20830;SDS011;10576;53.556;9.868;2023-05-10T06:33:09;7.60;;;5.30;;
20830;SDS011;10576;53.556;9.868;2023-05-10T06:35:35;6.43;;;5.40;;
20830;SDS011;10576;53.556;9.868;2023-05-10T06:38:01;8.38;;;5.25;;
20830;SDS011;10576;53.556;9.868;2023-05-10T06:40:27;7.00;;;5.38;;
20830;SDS011;10576;53.556;9.868;2023-05-10T06:42:53;10.90;;;6.22;;
20830;SDS011;10576;53.556;9.868;2023-05-10T06:45:19;8.07;;;6.07;;
20830;SDS011;10576;53.556;9.868;2023-05-10T06:47:44;8.45;;;5.15;;
20830;SDS011;10576;53.556;9.868;2023-05-10T06:50:10;7.85;;;5.40;;
20830;SDS011;10576;53.556;9.868;2023-05-10T06:52:36;7.10;;;5.30;;
20830;SDS011;10576;53.556;9.868;2023-05-10T06:55:03;5.93;;;5.35;;
20830;SDS011;10576;53.556;9.868;2023-05-10T06:57:31;6.53;;;5.43;;
20830;SDS011;10576;53.556;9.868;2023-05-10T06:59:59;7.07;;;5.55;;
20830;SDS011;10576;53.556;9.868;2023-05-10T07:02:25;7.63;;;5.20;;
20830;SDS011;10576;53.556;9.868;2023-05-10T07:04:51;8.50;;;5.45;;
20830;SDS011;10576;53.556;9.868;2023-05-10T07:07:17;6.35;;;5.25;;
20830;SDS011;10576;53.556;9.868;2023-05-10T07:09:43;6.90;;;5.53;;
20830;SDS011;10576;53.556;9.868;2023-05-10T07:12:09;5.70;;;5.03;;
20830;SDS011;10576;53.556;9.868;2023-05-10T07:14:35;7.97;;;5.07;;
20830;SDS011;10576;53.556;9.868;2023-05-10T07:17:01;7.10;;;5.13;;
20830;SDS011;10576;53.556;9.868;2023-05-10T07:19:26;6.13;;;5.40;;
20830;SDS011;10576;53.556;9.868;2023-05-10T07:21:54;6.90;;;5.80;;
20830;SDS011;10576;53.556;9.868;2023-05-10T07:24:20;6.05;;;5.40;;
20830;SDS011;10576;53.556;9.868;2023-05-10T07:26:45;6.63;;;5.07;;
20830;SDS011;10576;53.556;9.868;2023-05-10T07:29:11;6.50;;;5.22;;
20830;SDS011;10576;53.556;9.868;2023-05-10T07:31:37;7.95;;;5.30;;
20830;SDS011;10576;53.556;9.868;2023-05-10T07:34:02;5.57;;;4.97;;
20830;SDS011;10576;53.556;9.868;2023-05-10T07:36:28;5.43;;;4.90;;
20830;SDS011;10576;53.556;9.868;2023-05-10T07:38:54;7.07;;;5.07;;
20830;SDS011;10576;53.556;9.868;2023-05-10T07:41:19;8.35;;;5.18;;
20830;SDS011;10576;53.556;9.868;2023-05-10T07:43:46;6.60;;;5.30;;
20830;SDS011;10576;53.556;9.868;2023-05-10T07:46:11;5.90;;;4.97;;
20830;SDS011;10576;53.556;9.868;2023-05-10T07:48:37;5.67;;;5.07;;
20830;SDS011;10576;53.556;9.868;2023-05-10T07:51:02;7.63;;;5.33;;
20830;SDS011;10576;53.556;9.868;2023-05-10T07:53:28;9.60;;;5.63;;
20830;SDS011;10576;53.556;9.868;2023-05-10T07:55:55;7.30;;;5.20;;
20830;SDS011;10576;53.556;9.868;2023-05-10T07:58:25;9.63;;;5.50;;
20830;SDS011;10576;53.556;9.868;2023-05-10T08:00:51;6.72;;;5.32;;
20830;SDS011;10576;53.556;9.868;2023-05-10T08:03:17;7.10;;;4.88;;
20830;SDS011;10576;53.556;9.868;2023-05-10T08:05:43;6.60;;;5.00;;
20830;SDS011;10576;53.556;9.868;2023-05-10T08:08:08;7.57;;;5.13;;
20830;SDS011;10576;53.556;9.868;2023-05-10T08:10:34;6.33;;;5.00;;
20830;SDS011;10576;53.556;9.868;2023-05-10T08:13:00;9.07;;;5.90;;
20830;SDS011;10576;53.556;9.868;2023-05-10T08:15:25;6.47;;;5.43;;
20830;SDS011;10576;53.556;9.868;2023-05-10T08:17:51;10.70;;;5.70;;
20830;SDS011;10576;53.556;9.868;2023-05-10T08:20:17;6.38;;;4.90;;
20830;SDS011;10576;53.556;9.868;2023-05-10T08:22:44;6.28;;;5.15;;
20830;SDS011;10576;53.556;9.868;2023-05-10T08:25:10;5.28;;;4.88;;
20830;SDS011;10576;53.556;9.868;2023-05-10T08:27:36;5.63;;;4.73;;
20830;SDS011;10576;53.556;9.868;2023-05-10T08:30:02;6.27;;;5.13;;
20830;SDS011;10576;53.556;9.868;2023-05-10T08:32:27;9.37;;;5.33;;
20830;SDS011;10576;53.556;9.868;2023-05-10T08:34:53;6.60;;;5.30;;
20830;SDS011;10576;53.556;9.868;2023-05-10T08:37:20;5.90;;;5.10;;
20830;SDS011;10576;53.556;9.868;2023-05-10T08:39:47;5.95;;;5.10;;
20830;SDS011;10576;53.556;9.868;2023-05-10T08:42:13;5.60;;;5.00;;
20830;SDS011;10576;53.556;9.868;2023-05-10T08:44:44;5.30;;;4.80;;
20830;SDS011;10576;53.556;9.868;2023-05-10T08:47:13;8.35;;;5.13;;
20830;SDS011;10576;53.556;9.868;2023-05-10T08:49:41;7.63;;;5.30;;
20830;SDS011;10576;53.556;9.868;2023-05-10T08:52:07;7.75;;;5.10;;
20830;SDS011;10576;53.556;9.868;2023-05-10T08:54:34;6.00;;;5.40;;
20830;SDS011;10576;53.556;9.868;2023-05-10T08:57:00;5.70;;;5.10;;
20830;SDS011;10576;53.556;9.868;2023-05-10T08:59:25;5.80;;;5.30;;
20830;SDS011;10576;53.556;9.868;2023-05-10T09:01:52;6.75;;;5.60;;
20830;SDS011;10576;53.556;9.868;2023-05-10T09:04:20;6.17;;;5.40;;
20830;SDS011;10576;53.556;9.868;2023-05-10T09:06:46;6.90;;;5.40;;
20830;SDS011;10576;53.556;9.868;2023-05-10T09:09:11;9.30;;;5.70;;
20830;SDS011;10576;53.556;9.868;2023-05-10T09:11:37;7.20;;;5.30;;
20830;SDS011;10576;53.556;9.868;2023-05-10T09:14:03;6.67;;;6.00;;
20830;SDS011;10576;53.556;9.868;2023-05-10T09:16:29;7.85;;;5.82;;
20830;SDS011;10576;53.556;9.868;2023-05-10T09:18:55;6.95;;;5.78;;
20830;SDS011;10576;53.556;9.868;2023-05-10T09:21:21;7.50;;;5.82;;
20830;SDS011;10576;53.556;9.868;2023-05-10T09:23:47;10.37;;;5.77;;
20830;SDS011;10576;53.556;9.868;2023-05-10T09:26:14;7.38;;;6.38;;
20830;SDS011;10576;53.556;9.868;2023-05-10T09:28:57;9.52;;;6.10;;
20830;SDS011;10576;53.556;9.868;2023-05-10T09:31:24;7.32;;;6.22;;
20830;SDS011;10576;53.556;9.868;2023-05-10T09:33:50;7.40;;;6.07;;
20830;SDS011;10576;53.556;9.868;2023-05-10T09:36:17;7.15;;;6.10;;
20830;SDS011;10576;53.556;9.868;2023-05-10T09:41:20;8.60;;;6.18;;
20830;SDS011;10576;53.556;9.868;2023-05-10T09:43:46;8.27;;;6.70;;
20830;SDS011;10576;53.556;9.868;2023-05-10T09:46:12;7.10;;;6.38;;
20830;SDS011;10576;53.556;9.868;2023-05-10T09:48:40;9.05;;;6.57;;
20830;SDS011;10576;53.556;9.868;2023-05-10T09:51:07;7.90;;;6.50;;
20830;SDS011;10576;53.556;9.868;2023-05-10T09:53:33;7.77;;;6.60;;
20830;SDS011;10576;53.556;9.868;2023-05-10T09:55:58;8.77;;;6.53;;
20830;SDS011;10576;53.556;9.868;2023-05-10T09:58:24;7.25;;;6.65;;
20830;SDS011;10576;53.556;9.868;2023-05-10T10:00:50;8.90;;;6.80;;
20830;SDS011;10576;53.556;9.868;2023-05-10T10:03:18;7.35;;;6.65;;
20830;SDS011;10576;53.556;9.868;2023-05-10T10:05:45;8.70;;;6.93;;
20830;SDS011;10576;53.556;9.868;2023-05-10T10:08:12;9.20;;;7.30;;
20830;SDS011;10576;53.556;9.868;2023-05-10T10:10:38;8.52;;;7.68;;
20830;SDS011;10576;53.556;9.868;2023-05-10T10:13:09;8.98;;;7.80;;
20830;SDS011;10576;53.556;9.868;2023-05-10T10:15:35;10.90;;;7.95;;
20830;SDS011;10576;53.556;9.868;2023-05-10T10:18:00;8.73;;;7.82;;
20830;SDS011;10576;53.556;9.868;2023-05-10T10:20:28;9.10;;;8.20;;
20830;SDS011;10576;53.556;9.868;2023-05-10T10:22:54;8.82;;;7.93;;
20830;SDS011;10576;53.556;9.868;2023-05-10T10:25:20;10.65;;;8.48;;
20830;SDS011;10576;53.556;9.868;2023-05-10T10:33:12;9.43;;;8.43;;
20830;SDS011;10576;53.556;9.868;2023-05-10T10:35:58;13.07;;;9.55;;
20830;SDS011;10576;53.556;9.868;2023-05-10T10:38:25;11.00;;;9.30;;
20830;SDS011;10576;53.556;9.868;2023-05-10T10:41:49;10.48;;;9.48;;
20830;SDS011;10576;53.556;9.868;2023-05-10T10:57:31;11.13;;;9.48;;
20830;SDS011;10576;53.556;9.868;2023-05-10T11:00:20;10.90;;;9.80;;
20830;SDS011;10576;53.556;9.868;2023-05-10T11:03:05;9.98;;;9.00;;
20830;SDS011;10576;53.556;9.868;2023-05-10T11:05:41;10.13;;;9.23;;
20830;SDS011;10576;53.556;9.868;2023-05-10T11:08:09;11.90;;;9.83;;
20830;SDS011;10576;53.556;9.868;2023-05-10T11:10:37;10.75;;;9.68;;
20830;SDS011;10576;53.556;9.868;2023-05-10T11:13:07;10.15;;;9.10;;
20830;SDS011;10576;53.556;9.868;2023-05-10T11:18:17;10.43;;;9.43;;
20830;SDS011;10576;53.556;9.868;2023-05-10T11:20:52;12.05;;;10.02;;
20830;SDS011;10576;53.556;9.868;2023-05-10T11:23:20;10.48;;;9.57;;
20830;SDS011;10576;53.556;9.868;2023-05-10T11:25:47;12.17;;;9.70;;
20830;SDS011;10576;53.556;9.868;2023-05-10T11:28:16;10.18;;;9.15;;
20830;SDS011;10576;53.556;9.868;2023-05-10T11:30:43;10.43;;;9.32;;
20830;SDS011;10576;53.556;9.868;2023-05-10T11:33:09;9.82;;;8.82;;
20830;SDS011;10576;53.556;9.868;2023-05-10T11:35:41;10.40;;;9.40;;
20830;SDS011;10576;53.556;9.868;2023-05-10T11:38:07;10.30;;;9.30;;
20830;SDS011;10576;53.556;9.868;2023-05-10T11:40:34;11.18;;;9.65;;
20830;SDS011;10576;53.556;9.868;2023-05-10T11:43:00;10.27;;;9.05;;
20830;SDS011;10576;53.556;9.868;2023-05-10T11:45:26;10.23;;;9.30;;
20830;SDS011;10576;53.556;9.868;2023-05-10T11:47:53;10.27;;;9.38;;
20830;SDS011;10576;53.556;9.868;2023-05-10T11:50:20;10.60;;;8.97;;
20830;SDS011;10576;53.556;9.868;2023-05-10T11:52:49;9.47;;;8.40;;
20830;SDS011;10576;53.556;9.868;2023-05-10T11:55:16;9.40;;;8.40;;
20830;SDS011;10576;53.556;9.868;2023-05-10T11:57:41;9.50;;;8.57;;
20830;SDS011;10576;53.556;9.868;2023-05-10T12:00:10;9.48;;;8.57;;
20830;SDS011;10576;53.556;9.868;2023-05-10T12:02:37;9.13;;;8.00;;
20830;SDS011;10576;53.556;9.868;2023-05-10T12:05:03;10.95;;;8.75;;
20830;SDS011;10576;53.556;9.868;2023-05-10T12:07:30;9.68;;;8.38;;
20830;SDS011;10576;53.556;9.868;2023-05-10T12:10:08;9.68;;;8.57;;
20830;SDS011;10576;53.556;9.868;2023-05-10T12:12:42;9.88;;;8.93;;
20830;SDS011;10576;53.556;9.868;2023-05-10T12:17:45;9.38;;;8.45;;
20830;SDS011;10576;53.556;9.868;2023-05-10T12:20:14;9.88;;;8.98;;
20830;SDS011;10576;53.556;9.868;2023-05-10T12:22:40;10.00;;;9.10;;
20830;SDS011;10576;53.556;9.868;2023-05-10T12:25:07;9.93;;;8.93;;
20830;SDS011;10576;53.556;9.868;2023-05-10T12:27:34;9.65;;;8.68;;
20830;SDS011;10576;53.556;9.868;2023-05-10T12:29:59;9.23;;;8.33;;
20830;SDS011;10576;53.556;9.868;2023-05-10T12:32:38;6.93;;;6.22;;
20830;SDS011;10576;53.556;9.868;2023-05-10T12:35:04;7.38;;;6.68;;
20830;SDS011;10576;53.556;9.868;2023-05-10T12:37:30;8.90;;;8.00;;
20830;SDS011;10576;53.556;9.868;2023-05-10T12:40:00;9.65;;;8.60;;
20830;SDS011;10576;53.556;9.868;2023-05-10T12:42:26;8.65;;;7.70;;
20830;SDS011;10576;53.556;9.868;2023-05-10T12:44:55;8.38;;;7.57;;
20830;SDS011;10576;53.556;9.868;2023-05-10T12:47:21;7.80;;;7.10;;
20830;SDS011;10576;53.556;9.868;2023-05-10T12:49:47;8.53;;;7.73;;
20830;SDS011;10576;53.556;9.868;2023-05-10T12:52:12;9.23;;;8.30;;
20830;SDS011;10576;53.556;9.868;2023-05-10T12:54:38;8.20;;;7.40;;
20830;SDS011;10576;53.556;9.868;2023-05-10T12:57:03;8.82;;;7.97;;
20830;SDS011;10576;53.556;9.868;2023-05-10T12:59:29;9.20;;;8.27;;
20830;SDS011;10576;53.556;9.868;2023-05-10T13:01:56;9.80;;;8.90;;
20830;SDS011;10576;53.556;9.868;2023-05-10T13:04:22;10.07;;;8.70;;
20830;SDS011;10576;53.556;9.868;2023-05-10T13:06:48;9.35;;;8.55;;
20830;SDS011;10576;53.556;9.868;2023-05-10T13:09:13;9.05;;;8.15;;
20830;SDS011;10576;53.556;9.868;2023-05-10T13:11:40;9.43;;;8.52;;
20830;SDS011;10576;53.556;9.868;2023-05-10T13:14:06;8.73;;;7.93;;
20830;SDS011;10576;53.556;9.868;2023-05-10T13:16:31;8.93;;;8.13;;
20830;SDS011;10576;53.556;9.868;2023-05-10T13:18:57;9.52;;;8.63;;
20830;SDS011;10576;53.556;9.868;2023-05-10T13:21:23;10.70;;;9.70;;
20830;SDS011;10576;53.556;9.868;2023-05-10T13:23:50;10.30;;;8.98;;
20830;SDS011;10576;53.556;9.868;2023-05-10T13:26:15;10.23;;;8.80;;
20830;SDS011;10576;53.556;9.868;2023-05-10T13:28:41;10.57;;;9.57;;
20830;SDS011;10576;53.556;9.868;2023-05-10T13:31:07;10.02;;;9.02;;
20830;SDS011;10576;53.556;9.868;2023-05-10T13:33:32;10.13;;;9.10;;
20830;SDS011;10576;53.556;9.868;2023-05-10T13:35:58;10.60;;;9.60;;
20830;SDS011;10576;53.556;9.868;2023-05-10T13:38:24;10.52;;;9.50;;
20830;SDS011;10576;53.556;9.868;2023-05-10T13:40:49;10.30;;;9.30;;
20830;SDS011;10576;53.556;9.868;2023-05-10T13:43:17;9.20;;;8.30;;
20830;SDS011;10576;53.556;9.868;2023-05-10T13:45:43;9.38;;;8.48;;
20830;SDS011;10576;53.556;9.868;2023-05-10T13:48:09;9.45;;;8.50;;
20830;SDS011;10576;53.556;9.868;2023-05-10T13:50:35;9.10;;;8.20;;
20830;SDS011;10576;53.556;9.868;2023-05-10T13:53:01;9.35;;;8.45;;
20830;SDS011;10576;53.556;9.868;2023-05-10T13:55:26;9.13;;;8.27;;
20830;SDS011;10576;53.556;9.868;2023-05-10T13:57:52;8.43;;;7.63;;
20830;SDS011;10576;53.556;9.868;2023-05-10T14:00:17;8.90;;;8.10;;
20830;SDS011;10576;53.556;9.868;2023-05-10T14:02:43;8.90;;;8.10;;
20830;SDS011;10576;53.556;9.868;2023-05-10T14:05:09;9.13;;;8.23;;
20830;SDS011;10576;53.556;9.868;2023-05-10T14:07:34;8.80;;;8.05;;
20830;SDS011;10576;53.556;9.868;2023-05-10T14:10:00;9.82;;;8.30;;
20830;SDS011;10576;53.556;9.868;2023-05-10T14:12:26;8.57;;;7.78;;
20830;SDS011;10576;53.556;9.868;2023-05-10T14:14:52;8.63;;;7.73;;
20830;SDS011;10576;53.556;9.868;2023-05-10T14:17:18;8.60;;;7.80;;
20830;SDS011;10576;53.556;9.868;2023-05-10T14:19:44;9.00;;;8.20;;
20830;SDS011;10576;53.556;9.868;2023-05-10T14:22:10;8.77;;;7.97;;
20830;SDS011;10576;53.556;9.868;2023-05-10T14:24:35;9.07;;;8.37;;
20830;SDS011;10576;53.556;9.868;2023-05-10T14:27:02;9.43;;;8.40;;
20830;SDS011;10576;53.556;9.868;2023-05-10T14:29:28;10.13;;;9.13;;
20830;SDS011;10576;53.556;9.868;2023-05-10T14:31:54;8.83;;;8.13;;
20830;SDS011;10576;53.556;9.868;2023-05-10T14:34:19;8.73;;;7.82;;
20830;SDS011;10576;53.556;9.868;2023-05-10T14:36:45;8.73;;;7.90;;
20830;SDS011;10576;53.556;9.868;2023-05-10T14:39:11;8.20;;;7.40;;
20830;SDS011;10576;53.556;9.868;2023-05-10T14:41:38;9.60;;;8.52;;
20830;SDS011;10576;53.556;9.868;2023-05-10T14:44:06;9.90;;;8.90;;
20830;SDS011;10576;53.556;9.868;2023-05-10T14:46:31;9.88;;;8.88;;
20830;SDS011;10576;53.556;9.868;2023-05-10T14:48:57;10.30;;;8.63;;
20830;SDS011;10576;53.556;9.868;2023-05-10T14:51:22;10.10;;;8.77;;
20830;SDS011;10576;53.556;9.868;2023-05-10T14:53:48;10.60;;;8.50;;
20830;SDS011;10576;53.556;9.868;2023-05-10T14:56:14;8.93;;;8.13;;
20830;SDS011;10576;53.556;9.868;2023-05-10T14:58:40;9.32;;;8.15;;
20830;SDS011;10576;53.556;9.868;2023-05-10T15:01:05;8.57;;;7.78;;
20830;SDS011;10576;53.556;9.868;2023-05-10T15:03:31;10.30;;;8.30;;
20830;SDS011;10576;53.556;9.868;2023-05-10T15:05:57;9.60;;;8.70;;
20830;SDS011;10576;53.556;9.868;2023-05-10T15:08:23;8.98;;;8.15;;
20830;SDS011;10576;53.556;9.868;2023-05-10T15:10:49;8.52;;;7.80;;
20830;SDS011;10576;53.556;9.868;2023-05-10T15:13:15;9.20;;;7.75;;
20830;SDS011;10576;53.556;9.868;2023-05-10T15:15:41;7.73;;;7.10;;
20830;SDS011;10576;53.556;9.868;2023-05-10T15:18:08;8.17;;;7.37;;
20830;SDS011;10576;53.556;9.868;2023-05-10T15:20:34;7.53;;;6.82;;
20830;SDS011;10576;53.556;9.868;2023-05-10T15:23:00;7.40;;;6.70;;
20830;SDS011;10576;53.556;9.868;2023-05-10T15:25:26;7.93;;;7.13;;
20830;SDS011;10576;53.556;9.868;2023-05-10T15:27:52;7.00;;;6.40;;
20830;SDS011;10576;53.556;9.868;2023-05-10T15:30:18;7.83;;;6.83;;
20830;SDS011;10576;53.556;9.868;2023-05-10T15:32:43;8.07;;;7.30;;